Wellsboro, Pennsylvania
Current Conditions -  °F | °C
As of 12:55 PM on Monday 24 Nov 2014 (Local Time) from KN38 Reporting Station
Broken Clouds Broken Clouds  
Wind Chill: 63°   Ceiling: 5500
Heat Index: 63°   Visibility: 10mi
Dew Point: 50°   Wind: 23mph
Humidity: 63%   Direction: 190°S
Pressure: 29.42"   Gusts: 38mph
Location:  41.75°N, 77.3°W
Report Text: KN38 241755Z AUTO 19020G33KT 10SM FEW031 SCT038 BKN055 17/10 A2942 RMK AO2
Loading
Personal Weather Stations






























Interactive Weather Map New forecast layout! Learn more

10-Day Weather Forecast

Advertisements
Track Severe Weather on mobile